Terminal Aerodrome Forecast
Issued by NWS Central Illinois

Home | Current Version | Previous Version | Text Only | Print | Product List | Glossary On
Versions: 1 2 3 4 5 6 7 8 9 10 11 12
000
FTUS43 KILX 020524
TAFPIA
TAF
KPIA 020524Z 0206/0306 22004KT P6SM SCT250
     FM021400 22010KT P6SM BKN250
     FM021700 21014G20KT P6SM FEW050 BKN250
     FM030000 22010KT P6SM BKN250=

USA.gov is the U.S. government's official web portal to all federal, state and local government web resources and services.